sensor_id;sensor_type;location;lat;lon;timestamp;pressure;altitude;pressure_sealevel;temperature;humidity
48390;BME280;34643;47.964;7.982;2022-11-15T00:03:26;96467.47;;;15.63;63.35
48390;BME280;34643;47.964;7.982;2022-11-15T00:08:45;96453.66;;;15.62;63.41
48390;BME280;34643;47.964;7.982;2022-11-15T00:14:04;96454.47;;;15.63;63.33
48390;BME280;34643;47.964;7.982;2022-11-15T00:19:23;96447.72;;;15.60;63.42
48390;BME280;34643;47.964;7.982;2022-11-15T00:24:42;96447.63;;;15.62;63.24
48390;BME280;34643;47.964;7.982;2022-11-15T00:30:01;96425.03;;;15.62;63.32
48390;BME280;34643;47.964;7.982;2022-11-15T00:35:20;96445.63;;;15.65;63.29
48390;BME280;34643;47.964;7.982;2022-11-15T00:40:39;96435.22;;;15.65;63.19
48390;BME280;34643;47.964;7.982;2022-11-15T00:45:58;96438.63;;;15.66;63.28
48390;BME280;34643;47.964;7.982;2022-11-15T00:51:16;96431.66;;;15.66;63.30
48390;BME280;34643;47.964;7.982;2022-11-15T00:56:36;96429.88;;;15.67;63.26
48390;BME280;34643;47.964;7.982;2022-11-15T01:01:55;96424.66;;;15.67;63.41
48390;BME280;34643;47.964;7.982;2022-11-15T01:07:14;96420.31;;;15.67;63.26
48390;BME280;34643;47.964;7.982;2022-11-15T01:12:33;96417.00;;;15.65;63.33
48390;BME280;34643;47.964;7.982;2022-11-15T01:17:52;96412.72;;;15.64;63.29
48390;BME280;34643;47.964;7.982;2022-11-15T01:23:10;96410.94;;;15.65;63.27
48390;BME280;34643;47.964;7.982;2022-11-15T01:28:33;96408.94;;;15.68;63.24
48390;BME280;34643;47.964;7.982;2022-11-15T01:33:52;96410.72;;;15.68;63.28
48390;BME280;34643;47.964;7.982;2022-11-15T01:39:11;96424.47;;;15.70;63.24
48390;BME280;34643;47.964;7.982;2022-11-15T01:50:00;96409.91;;;15.67;63.26
48390;BME280;34643;47.964;7.982;2022-11-15T01:55:22;96395.94;;;15.68;63.23
48390;BME280;34643;47.964;7.982;2022-11-15T02:00:42;96384.72;;;15.68;63.21
48390;BME280;34643;47.964;7.982;2022-11-15T02:06:01;96384.59;;;15.69;63.23
48390;BME280;34643;47.964;7.982;2022-11-15T02:11:20;96388.84;;;15.70;63.18
48390;BME280;34643;47.964;7.982;2022-11-15T02:16:46;96372.19;;;15.73;63.20
48390;BME280;34643;47.964;7.982;2022-11-15T02:22:14;96367.94;;;15.72;63.15
48390;BME280;34643;47.964;7.982;2022-11-15T02:32:58;96369.72;;;15.71;63.08
48390;BME280;34643;47.964;7.982;2022-11-15T02:39:03;96366.41;;;15.69;63.03
48390;BME280;34643;47.964;7.982;2022-11-15T02:44:37;96360.38;;;15.69;63.07
48390;BME280;34643;47.964;7.982;2022-11-15T02:49:48;96359.41;;;15.70;63.06
48390;BME280;34643;47.964;7.982;2022-11-15T03:06:27;96330.69;;;15.71;63.17
48390;BME280;34643;47.964;7.982;2022-11-15T03:11:54;96322.75;;;15.73;63.17
48390;BME280;34643;47.964;7.982;2022-11-15T03:17:16;96333.16;;;15.73;62.95
48390;BME280;34643;47.964;7.982;2022-11-15T03:22:37;96328.06;;;15.71;63.07
48390;BME280;34643;47.964;7.982;2022-11-15T03:27:58;96335.78;;;15.73;63.03
48390;BME280;34643;47.964;7.982;2022-11-15T03:33:20;96328.06;;;15.71;63.05
48390;BME280;34643;47.964;7.982;2022-11-15T03:38:41;96325.47;;;15.71;63.16
48390;BME280;34643;47.964;7.982;2022-11-15T03:49:32;96323.59;;;15.73;63.07
48390;BME280;34643;47.964;7.982;2022-11-15T03:54:56;96321.81;;;15.74;63.13
48390;BME280;34643;47.964;7.982;2022-11-15T04:00:15;96307.97;;;15.73;63.04
48390;BME280;34643;47.964;7.982;2022-11-15T04:05:34;96303.50;;;15.75;63.10
48390;BME280;34643;47.964;7.982;2022-11-15T04:10:53;96303.41;;;15.77;63.07
48390;BME280;34643;47.964;7.982;2022-11-15T04:16:12;96298.19;;;15.77;63.09
48390;BME280;34643;47.964;7.982;2022-11-15T04:21:31;96290.50;;;15.75;63.10
48390;BME280;34643;47.964;7.982;2022-11-15T04:27:09;96289.56;;;15.76;63.10
48390;BME280;34643;47.964;7.982;2022-11-15T04:32:27;96285.28;;;15.75;63.06
48390;BME280;34643;47.964;7.982;2022-11-15T04:37:46;96291.22;;;15.77;63.04
48390;BME280;34643;47.964;7.982;2022-11-15T04:43:05;96291.69;;;15.83;63.11
48390;BME280;34643;47.964;7.982;2022-11-15T04:48:24;96290.66;;;15.85;63.08
48390;BME280;34643;47.964;7.982;2022-11-15T04:53:43;96280.94;;;15.87;63.05
48390;BME280;34643;47.964;7.982;2022-11-15T04:59:02;96269.59;;;15.88;63.20
48390;BME280;34643;47.964;7.982;2022-11-15T05:04:21;96276.09;;;15.94;63.16
48390;BME280;34643;47.964;7.982;2022-11-15T05:09:40;96273.25;;;15.97;63.05
48390;BME280;34643;47.964;7.982;2022-11-15T05:14:59;96256.81;;;15.96;63.07
48390;BME280;34643;47.964;7.982;2022-11-15T05:20:18;96244.63;;;15.97;63.16
48390;BME280;34643;47.964;7.982;2022-11-15T05:25:37;96241.91;;;15.99;63.09
48390;BME280;34643;47.964;7.982;2022-11-15T05:31:02;96245.22;;;16.01;63.25
48390;BME280;34643;47.964;7.982;2022-11-15T05:36:33;96238.72;;;16.06;63.26
48390;BME280;34643;47.964;7.982;2022-11-15T05:41:54;96247.94;;;16.10;63.10
48390;BME280;34643;47.964;7.982;2022-11-15T05:47:16;96238.94;;;16.14;63.14
48390;BME280;34643;47.964;7.982;2022-11-15T05:52:37;96234.69;;;16.13;63.34
48390;BME280;34643;47.964;7.982;2022-11-15T05:57:56;96241.53;;;16.14;63.27
48390;BME280;34643;47.964;7.982;2022-11-15T06:03:15;96248.53;;;16.14;63.30
48390;BME280;34643;47.964;7.982;2022-11-15T06:08:34;96244.13;;;16.14;63.22
48390;BME280;34643;47.964;7.982;2022-11-15T06:13:53;96240.94;;;16.11;63.18
48390;BME280;34643;47.964;7.982;2022-11-15T06:19:11;96240.00;;;16.12;63.44
48390;BME280;34643;47.964;7.982;2022-11-15T06:24:30;96241.91;;;16.10;63.32
48390;BME280;34643;47.964;7.982;2022-11-15T06:29:49;96243.66;;;16.09;63.20
48390;BME280;34643;47.964;7.982;2022-11-15T06:35:08;96234.22;;;16.08;63.40
48390;BME280;34643;47.964;7.982;2022-11-15T06:40:27;96234.34;;;16.07;63.33
48390;BME280;34643;47.964;7.982;2022-11-15T06:45:46;96227.47;;;16.06;63.25
48390;BME280;34643;47.964;7.982;2022-11-15T06:51:05;96231.84;;;16.05;63.31
48390;BME280;34643;47.964;7.982;2022-11-15T06:56:24;96230.22;;;16.04;63.25
48390;BME280;34643;47.964;7.982;2022-11-15T07:01:43;96230.44;;;16.01;63.24
48390;BME280;34643;47.964;7.982;2022-11-15T07:07:01;96233.84;;;16.02;63.18
48390;BME280;34643;47.964;7.982;2022-11-15T07:12:20;96228.75;;;16.00;63.28
48390;BME280;34643;47.964;7.982;2022-11-15T07:17:39;96228.75;;;16.00;63.19
48390;BME280;34643;47.964;7.982;2022-11-15T07:23:02;96223.66;;;15.99;63.29
48390;BME280;34643;47.964;7.982;2022-11-15T07:28:21;96229.84;;;15.98;63.23
48390;BME280;34643;47.964;7.982;2022-11-15T07:33:39;96226.53;;;15.95;62.98
48390;BME280;34643;47.964;7.982;2022-11-15T07:38:58;96225.69;;;15.95;63.16
48390;BME280;34643;47.964;7.982;2022-11-15T07:44:17;96222.25;;;15.94;63.14
48390;BME280;34643;47.964;7.982;2022-11-15T07:49:36;96221.56;;;15.92;62.95
48390;BME280;34643;47.964;7.982;2022-11-15T07:54:55;96229.38;;;15.92;63.00
48390;BME280;34643;47.964;7.982;2022-11-15T08:00:14;96225.09;;;15.91;62.99
48390;BME280;34643;47.964;7.982;2022-11-15T08:05:33;96224.28;;;15.91;62.96
48390;BME280;34643;47.964;7.982;2022-11-15T08:10:52;96227.81;;;15.90;62.89
48390;BME280;34643;47.964;7.982;2022-11-15T08:16:12;96220.16;;;15.88;62.85
48390;BME280;34643;47.964;7.982;2022-11-15T08:21:31;96219.19;;;15.89;62.99
48390;BME280;34643;47.964;7.982;2022-11-15T08:26:50;96223.47;;;15.90;62.89
48390;BME280;34643;47.964;7.982;2022-11-15T08:32:09;96226.19;;;15.89;62.89
48390;BME280;34643;47.964;7.982;2022-11-15T08:37:27;96217.53;;;15.88;62.84
48390;BME280;34643;47.964;7.982;2022-11-15T08:42:46;96219.31;;;15.88;62.96
48390;BME280;34643;47.964;7.982;2022-11-15T08:48:06;96214.22;;;15.86;62.76
48390;BME280;34643;47.964;7.982;2022-11-15T08:53:25;96208.19;;;15.86;62.82
48390;BME280;34643;47.964;7.982;2022-11-15T08:58:43;96215.16;;;15.85;62.80
48390;BME280;34643;47.964;7.982;2022-11-15T09:04:02;96209.97;;;15.85;62.91
48390;BME280;34643;47.964;7.982;2022-11-15T09:09:23;96197.88;;;15.84;62.85
48390;BME280;34643;47.964;7.982;2022-11-15T09:14:42;96197.06;;;15.84;62.77
48390;BME280;34643;47.964;7.982;2022-11-15T09:20:01;96201.47;;;15.83;62.85
48390;BME280;34643;47.964;7.982;2022-11-15T09:25:20;96199.66;;;15.84;62.85
48390;BME280;34643;47.964;7.982;2022-11-15T09:30:39;96202.38;;;15.82;62.87
48390;BME280;34643;47.964;7.982;2022-11-15T09:36:02;96203.34;;;15.81;62.89
48390;BME280;34643;47.964;7.982;2022-11-15T09:52:36;96199.19;;;15.78;62.84
48390;BME280;34643;47.964;7.982;2022-11-15T09:57:41;96197.56;;;15.77;62.79
48390;BME280;34643;47.964;7.982;2022-11-15T10:07:54;96188.09;;;15.76;62.96
48390;BME280;34643;47.964;7.982;2022-11-15T10:12:55;96171.75;;;15.74;62.80
48390;BME280;34643;47.964;7.982;2022-11-15T10:18:01;96174.25;;;15.76;62.85
48390;BME280;34643;47.964;7.982;2022-11-15T10:23:06;96171.66;;;15.76;62.74
48390;BME280;34643;47.964;7.982;2022-11-15T10:28:11;96172.47;;;15.76;62.85
48390;BME280;34643;47.964;7.982;2022-11-15T10:33:17;96161.34;;;15.74;62.80
48390;BME280;34643;47.964;7.982;2022-11-15T10:38:20;96157.78;;;15.75;62.93
48390;BME280;34643;47.964;7.982;2022-11-15T10:43:20;96152.59;;;15.75;62.83
48390;BME280;34643;47.964;7.982;2022-11-15T10:48:21;96143.84;;;15.76;62.73
48390;BME280;34643;47.964;7.982;2022-11-15T10:53:40;96139.56;;;15.75;62.82
48390;BME280;34643;47.964;7.982;2022-11-15T10:58:44;96136.88;;;15.77;62.64
48390;BME280;34643;47.964;7.982;2022-11-15T11:04:03;96135.22;;;15.76;62.64
48390;BME280;34643;47.964;7.982;2022-11-15T11:09:04;96111.81;;;15.76;62.71
48390;BME280;34643;47.964;7.982;2022-11-15T11:14:24;96108.34;;;15.75;62.75
48390;BME280;34643;47.964;7.982;2022-11-15T11:19:31;96090.13;;;15.75;62.54
48390;BME280;34643;47.964;7.982;2022-11-15T11:24:42;96072.91;;;15.74;62.57
48390;BME280;34643;47.964;7.982;2022-11-15T11:40:12;96055.59;;;15.73;62.56
48390;BME280;34643;47.964;7.982;2022-11-15T11:50:33;96043.78;;;15.81;62.36
48390;BME280;34643;47.964;7.982;2022-11-15T11:55:41;96033.47;;;15.90;62.34
48390;BME280;34643;47.964;7.982;2022-11-15T12:00:46;96020.75;;;15.97;62.21
48390;BME280;34643;47.964;7.982;2022-11-15T12:05:59;96007.28;;;16.03;62.05
48390;BME280;34643;47.964;7.982;2022-11-15T12:11:03;96000.03;;;16.07;62.19
48390;BME280;34643;47.964;7.982;2022-11-15T12:16:14;95985.13;;;16.09;62.25
48390;BME280;34643;47.964;7.982;2022-11-15T12:21:20;95985.00;;;16.10;62.09
48390;BME280;34643;47.964;7.982;2022-11-15T12:26:23;95983.09;;;16.12;62.29
48390;BME280;34643;47.964;7.982;2022-11-15T12:31:36;95974.47;;;16.12;62.28
48390;BME280;34643;47.964;7.982;2022-11-15T12:36:38;95960.63;;;16.11;62.36
48390;BME280;34643;47.964;7.982;2022-11-15T12:41:40;95957.06;;;16.12;62.28
48390;BME280;34643;47.964;7.982;2022-11-15T13:02:15;95945.69;;;16.13;62.28
48390;BME280;34643;47.964;7.982;2022-11-15T13:17:46;95913.50;;;16.14;62.45
48390;BME280;34643;47.964;7.982;2022-11-15T13:22:47;95901.44;;;16.13;62.34
48390;BME280;34643;47.964;7.982;2022-11-15T13:27:51;95902.38;;;16.12;62.47
48390;BME280;34643;47.964;7.982;2022-11-15T13:32:53;95894.31;;;16.15;62.28
48390;BME280;34643;47.964;7.982;2022-11-15T13:37:55;95881.88;;;16.19;62.33
48390;BME280;34643;47.964;7.982;2022-11-15T13:42:56;95874.88;;;16.20;62.43
48390;BME280;34643;47.964;7.982;2022-11-15T13:47:57;95868.84;;;16.19;62.45
48390;BME280;34643;47.964;7.982;2022-11-15T13:52:58;95862.69;;;16.20;62.45
48390;BME280;34643;47.964;7.982;2022-11-15T13:58:01;95851.56;;;16.18;62.39
48390;BME280;34643;47.964;7.982;2022-11-15T14:08:21;95839.25;;;16.20;62.43
48390;BME280;34643;47.964;7.982;2022-11-15T14:13:27;95836.66;;;16.20;62.43
48390;BME280;34643;47.964;7.982;2022-11-15T14:18:42;95828.16;;;16.18;62.30
48390;BME280;34643;47.964;7.982;2022-11-15T14:23:43;95819.50;;;16.18;62.44
48390;BME280;34643;47.964;7.982;2022-11-15T14:28:44;95809.09;;;16.18;62.29
48390;BME280;34643;47.964;7.982;2022-11-15T14:33:44;95803.91;;;16.18;62.45
48390;BME280;34643;47.964;7.982;2022-11-15T14:38:44;95797.59;;;16.20;62.35
48390;BME280;34643;47.964;7.982;2022-11-15T14:43:45;95786.91;;;16.23;62.37
48390;BME280;34643;47.964;7.982;2022-11-15T14:48:45;95785.84;;;16.26;62.37
48390;BME280;34643;47.964;7.982;2022-11-15T14:53:46;95780.66;;;16.26;62.34
48390;BME280;34643;47.964;7.982;2022-11-15T14:58:46;95771.88;;;16.27;62.33
48390;BME280;34643;47.964;7.982;2022-11-15T15:03:47;95766.66;;;16.27;62.23
48390;BME280;34643;47.964;7.982;2022-11-15T15:08:47;95754.59;;;16.26;62.27
48390;BME280;34643;47.964;7.982;2022-11-15T15:13:50;95751.03;;;16.27;62.39
48390;BME280;34643;47.964;7.982;2022-11-15T15:18:52;95758.03;;;16.26;62.31
48390;BME280;34643;47.964;7.982;2022-11-15T15:23:52;95743.09;;;16.28;62.43
48390;BME280;34643;47.964;7.982;2022-11-15T15:28:56;95742.41;;;16.26;62.36
48390;BME280;34643;47.964;7.982;2022-11-15T15:33:56;95731.03;;;16.27;62.48
48390;BME280;34643;47.964;7.982;2022-11-15T15:38:56;95719.22;;;16.23;62.59
48390;BME280;34643;47.964;7.982;2022-11-15T15:43:57;95710.34;;;16.26;62.33
48390;BME280;34643;47.964;7.982;2022-11-15T15:48:57;95707.75;;;16.26;62.39
48390;BME280;34643;47.964;7.982;2022-11-15T15:53:57;95705.81;;;16.28;62.52
48390;BME280;34643;47.964;7.982;2022-11-15T15:58:58;95700.75;;;16.26;62.20
48390;BME280;34643;47.964;7.982;2022-11-15T16:03:58;95698.13;;;16.26;62.41
48390;BME280;34643;47.964;7.982;2022-11-15T16:08:58;95697.31;;;16.26;62.40
48390;BME280;34643;47.964;7.982;2022-11-15T16:13:59;95686.06;;;16.25;62.41
48390;BME280;34643;47.964;7.982;2022-11-15T16:18:59;95683.31;;;16.27;62.22
48390;BME280;34643;47.964;7.982;2022-11-15T16:24:00;95684.31;;;16.26;62.42
48390;BME280;34643;47.964;7.982;2022-11-15T16:29:01;95676.50;;;16.26;62.22
48390;BME280;34643;47.964;7.982;2022-11-15T16:34:01;95664.69;;;16.22;62.40
48390;BME280;34643;47.964;7.982;2022-11-15T16:39:02;95666.34;;;16.23;62.14
48390;BME280;34643;47.964;7.982;2022-11-15T16:44:05;95677.56;;;16.23;62.16
48390;BME280;34643;47.964;7.982;2022-11-15T16:49:07;95681.16;;;16.22;62.16
48390;BME280;34643;47.964;7.982;2022-11-15T16:54:11;95676.75;;;16.23;62.32
48390;BME280;34643;47.964;7.982;2022-11-15T16:59:14;95671.81;;;16.20;62.21
48390;BME280;34643;47.964;7.982;2022-11-15T17:04:18;95666.59;;;16.20;62.19
48390;BME280;34643;47.964;7.982;2022-11-15T17:09:20;95659.75;;;16.19;62.13
48390;BME280;34643;47.964;7.982;2022-11-15T17:14:23;95652.75;;;16.19;62.12
48390;BME280;34643;47.964;7.982;2022-11-15T17:19:23;95651.25;;;16.16;62.31
48390;BME280;34643;47.964;7.982;2022-11-15T17:24:24;95648.63;;;16.16;62.22
48390;BME280;34643;47.964;7.982;2022-11-15T17:29:24;95651.25;;;16.16;62.34
48390;BME280;34643;47.964;7.982;2022-11-15T17:34:24;95648.78;;;16.15;62.25
48390;BME280;34643;47.964;7.982;2022-11-15T17:39:24;95648.91;;;16.13;62.33
48390;BME280;34643;47.964;7.982;2022-11-15T17:44:25;95639.47;;;16.12;62.31
48390;BME280;34643;47.964;7.982;2022-11-15T17:49:25;95634.38;;;16.11;62.31
48390;BME280;34643;47.964;7.982;2022-11-15T17:54:25;95627.25;;;16.13;62.33
48390;BME280;34643;47.964;7.982;2022-11-15T17:59:26;95624.66;;;16.13;62.15
48390;BME280;34643;47.964;7.982;2022-11-15T18:04:26;95620.97;;;16.15;62.13
48390;BME280;34643;47.964;7.982;2022-11-15T18:09:27;95603.84;;;16.23;62.04
48390;BME280;34643;47.964;7.982;2022-11-15T18:14:28;95615.63;;;16.27;62.05
48390;BME280;34643;47.964;7.982;2022-11-15T18:19:28;95615.38;;;16.30;62.02
48390;BME280;34643;47.964;7.982;2022-11-15T18:24:30;95617.03;;;16.31;61.93
48390;BME280;34643;47.964;7.982;2022-11-15T18:29:31;95618.66;;;16.32;62.09
48390;BME280;34643;47.964;7.982;2022-11-15T18:34:33;95605.09;;;16.38;61.98
48390;BME280;34643;47.964;7.982;2022-11-15T18:39:33;95604.13;;;16.39;62.38
48390;BME280;34643;47.964;7.982;2022-11-15T18:44:34;95615.22;;;16.61;62.83
48390;BME280;34643;47.964;7.982;2022-11-15T18:49:34;95598.81;;;16.70;63.19
48390;BME280;34643;47.964;7.982;2022-11-15T18:54:34;95593.03;;;16.76;63.97
48390;BME280;34643;47.964;7.982;2022-11-15T18:59:35;95581.66;;;16.77;63.84
48390;BME280;34643;47.964;7.982;2022-11-15T19:04:35;95580.13;;;16.75;64.08
48390;BME280;34643;47.964;7.982;2022-11-15T19:09:35;95578.06;;;16.78;64.12
48390;BME280;34643;47.964;7.982;2022-11-15T19:14:35;95565.31;;;16.75;64.64
48390;BME280;34643;47.964;7.982;2022-11-15T19:19:36;95561.34;;;16.71;65.47
48390;BME280;34643;47.964;7.982;2022-11-15T19:24:36;95558.59;;;16.72;64.91
48390;BME280;34643;47.964;7.982;2022-11-15T19:29:36;95549.97;;;16.72;65.19
48390;BME280;34643;47.964;7.982;2022-11-15T19:34:36;95547.22;;;16.73;64.92
48390;BME280;34643;47.964;7.982;2022-11-15T19:39:40;95554.75;;;16.77;64.99
48390;BME280;34643;47.964;7.982;2022-11-15T19:44:40;95546.78;;;16.78;65.06
48390;BME280;34643;47.964;7.982;2022-11-15T19:49:41;95551.06;;;16.79;65.26
48390;BME280;34643;47.964;7.982;2022-11-15T19:54:42;95546.53;;;16.81;65.45
48390;BME280;34643;47.964;7.982;2022-11-15T19:59:42;95539.66;;;16.80;65.33
48390;BME280;34643;47.964;7.982;2022-11-15T20:04:43;95536.09;;;16.81;65.03
48390;BME280;34643;47.964;7.982;2022-11-15T20:09:43;95536.66;;;16.85;65.25
48390;BME280;34643;47.964;7.982;2022-11-15T20:14:43;95540.09;;;16.85;65.29
48390;BME280;34643;47.964;7.982;2022-11-15T20:19:45;95530.34;;;16.87;65.12
48390;BME280;34643;47.964;7.982;2022-11-15T20:24:45;95538.03;;;16.89;64.97
48390;BME280;34643;47.964;7.982;2022-11-15T20:29:45;95528.44;;;16.89;65.11
48390;BME280;34643;47.964;7.982;2022-11-15T20:34:49;95525.66;;;16.91;65.22
48390;BME280;34643;47.964;7.982;2022-11-15T20:39:49;95513.63;;;16.90;65.15
48390;BME280;34643;47.964;7.982;2022-11-15T20:44:49;95522.09;;;16.92;65.09
48390;BME280;34643;47.964;7.982;2022-11-15T20:49:50;95529.78;;;16.94;65.40
48390;BME280;34643;47.964;7.982;2022-11-15T20:54:50;95519.22;;;16.95;65.27
48390;BME280;34643;47.964;7.982;2022-11-15T20:59:50;95521.53;;;16.98;65.26
48390;BME280;34643;47.964;7.982;2022-11-15T21:04:51;95530.59;;;17.04;65.22
48390;BME280;34643;47.964;7.982;2022-11-15T21:09:51;95533.19;;;17.04;65.14
48390;BME280;34643;47.964;7.982;2022-11-15T21:15:09;95527.97;;;17.04;65.29
48390;BME280;34643;47.964;7.982;2022-11-15T21:20:10;95527.13;;;17.03;65.45
48390;BME280;34643;47.964;7.982;2022-11-15T21:25:10;95527.97;;;17.04;65.57
48390;BME280;34643;47.964;7.982;2022-11-15T21:30:11;95525.91;;;17.07;65.16
48390;BME280;34643;47.964;7.982;2022-11-15T21:35:11;95521.53;;;16.98;65.70
48390;BME280;34643;47.964;7.982;2022-11-15T21:40:13;95515.94;;;16.93;65.85
48390;BME280;34643;47.964;7.982;2022-11-15T21:45:13;95509.06;;;16.92;65.86
48390;BME280;34643;47.964;7.982;2022-11-15T21:50:13;95497.16;;;16.89;65.62
48390;BME280;34643;47.964;7.982;2022-11-15T21:55:14;95509.50;;;16.87;65.83
48390;BME280;34643;47.964;7.982;2022-11-15T22:00:14;95518.81;;;16.90;65.77
48390;BME280;34643;47.964;7.982;2022-11-15T22:05:33;95509.50;;;16.87;65.53
48390;BME280;34643;47.964;7.982;2022-11-15T22:10:34;95502.66;;;16.86;65.78
48390;BME280;34643;47.964;7.982;2022-11-15T22:15:34;95487.69;;;16.88;65.66
48390;BME280;34643;47.964;7.982;2022-11-15T22:20:34;95489.63;;;16.86;65.50
48390;BME280;34643;47.964;7.982;2022-11-15T22:25:35;95491.38;;;16.86;65.71
48390;BME280;34643;47.964;7.982;2022-11-15T22:30:35;95483.75;;;16.84;65.53
48390;BME280;34643;47.964;7.982;2022-11-15T22:35:36;95478.53;;;16.84;65.80
48390;BME280;34643;47.964;7.982;2022-11-15T22:40:37;95465.59;;;16.83;65.58
48390;BME280;34643;47.964;7.982;2022-11-15T22:45:37;95451.06;;;16.80;65.80
48390;BME280;34643;47.964;7.982;2022-11-15T22:50:37;95443.09;;;16.82;65.63
48390;BME280;34643;47.964;7.982;2022-11-15T22:55:38;95445.19;;;16.88;65.79
48390;BME280;34643;47.964;7.982;2022-11-15T23:00:39;95448.88;;;16.85;65.61
48390;BME280;34643;47.964;7.982;2022-11-15T23:05:39;95443.81;;;16.84;65.61
48390;BME280;34643;47.964;7.982;2022-11-15T23:10:40;95431.88;;;16.81;65.71
48390;BME280;34643;47.964;7.982;2022-11-15T23:16:01;95444.88;;;16.81;65.49
48390;BME280;34643;47.964;7.982;2022-11-15T23:21:22;95440.50;;;16.82;65.65
48390;BME280;34643;47.964;7.982;2022-11-15T23:26:41;95441.47;;;16.81;65.70
48390;BME280;34643;47.964;7.982;2022-11-15T23:31:42;95439.81;;;16.80;65.65
48390;BME280;34643;47.964;7.982;2022-11-15T23:37:01;95440.63;;;16.80;65.42
48390;BME280;34643;47.964;7.982;2022-11-15T23:42:01;95452.84;;;16.80;65.25
48390;BME280;34643;47.964;7.982;2022-11-15T23:47:01;95459.84;;;16.79;65.49
48390;BME280;34643;47.964;7.982;2022-11-15T23:52:02;95457.25;;;16.79;65.34
48390;BME280;34643;47.964;7.982;2022-11-15T23:57:02;95456.25;;;16.80;65.11
